AirNav   Air Wisconsin pilot careers
 
 1478 users online  

7G8 Geauga County Airport
Middlefield, Ohio, USA

GOING TO MIDDLEFIELD?


FAA INFORMATION EFFECTIVE 07 DECEMBER 2017

Location

FAA Identifier: 7G8
Lat/Long: 41-26-58.5000N / 081-03-46.6000W
41-26.975000N / 081-03.776667W
41.4495833 / -81.0629444
(estimated)
Elevation: 1174.2 ft. / 357.9 m (surveyed)
Variation: 09W (2015)
From city: 1 mile SE of MIDDLEFIELD, OH
Time zone: UTC -5 (UTC -4 during Daylight Saving Time)
Zip code: 44062

Airport Operations

Airport use: Open to the public
Control tower: no
ARTCC: CLEVELAND CENTER
FSS: CLEVELAND FLIGHT SERVICE STATION
NOTAMs facility: CLE (NOTAM-D service available)
Attendance: UNATNDD
Pattern altitude: 2199.2 ft. MSL
Wind indicator: lighted
Segmented circle: no
Lights: ACTVT REIL RY 11/29; MIRL RY 11/29 - CTAF.
Beacon: white-green (lighted land airport)
Operates sunset to sunrise.

Airport Communications

CTAF/UNICOM: 123.0
CLEVELAND APPROACH: 125.35 [0600-2300]
CLEVELAND DEPARTURE: 125.35 [0600-2300]
WX AWOS-3 at POV (17 nm SW): 118.675 (330-298-9353)
  • FOR IFR CLEARANCE CTC CLEVELAND APCH CTL AT 216-352-2323.

Nearby radio navigation aids

VOR radial/distance  VOR name  Freq  Var
CXRr137/6.1CHARDON VOR/DME112.7005W
YNGr297/18.9YOUNGSTOWN VORTAC109.0005W
ACOr021/21.4AKRON VOR/DME114.4004W
JFNr222/23.4JEFFERSON VOR/DME115.2005W

 
NDB name  Hdg/Dist  Freq  Var  ID
LAKELAND143/19.926308WLQL .-.. --.- .-..
CASTLE320/38.827209WUCP ..- -.-. .--.

Airport Services

Fuel available: 100LL MOGAS
Parking: hangars and tiedowns
Bottled oxygen: NONE

Runway Information

Runway 11/29

Dimensions: 3500 x 65 ft. / 1067 x 20 m
Surface: asphalt, in fair condition
Weight bearing capacity: 
Single wheel: 18.5
Runway edge lights: medium intensity
RUNWAY 11  RUNWAY 29
Latitude: 41-27.025530N41-26.925922N
Longitude: 081-04.153237W081-03.398898W
Elevation: 1174.2 ft.1157.8 ft.
Gradient: 0.6%0.6%
Traffic pattern: leftleft
Runway heading: 109 magnetic, 100 true289 magnetic, 280 true
Displaced threshold: 182 ft.no
Markings: nonprecision, in fair conditionnonprecision, in fair condition
Runway end identifier lights: yesyes
Touchdown point: yes, no lightsyes, no lights
Obstructions: 79 ft. tank, lighted, 715 ft. from runway, 260 ft. left of centerline, 6:1 slope to clear
RWY 11 +3-5 FT BRUSH 0-200 FT FM RWY END; 250 FT L; +2-8 FT BRUSH 40 FT TO 200 FM RWY END 110 FT R.
70 ft. trees, 201 ft. from runway, 147 ft. right of centerline
RWY 29 +70 FT TREES 0-200 FT FM RWY END 210 FT R

Airport Ownership and Management from official FAA records

Ownership: Publicly-owned
Owner: GEAUGA CO BOARD OF COMM
COURTHOUSE ANNEX, MAIN ST.
CHARDON, OH 44024
Phone 440-285-2222
Manager: PATTY FULOP
P.O. BOX 1308
MIDDLEFIELD, OH 44062
Phone 440-632-1884

Airport Operational Statistics

Aircraft based on the field: 43
Single engine airplanes: 31
Multi engine airplanes: 2
Helicopters: 1
Gliders airplanes: 6
Ultralights: 3
    
Aircraft operations: avg 20/day *
86% local general aviation
11% transient general aviation
3% air taxi
* for 12-month period ending 14 July 2017

Additional Remarks

PARALLEL TWY CLSD EAST OF T HNGRS PERMLY.
EXTSV GLDR ACTIVITY ON & INVOF ARPT.
DEER, BIRDS & OTHER WILDLIFE ON & INVOF ARPT.

Instrument Procedures

NOTE: All procedures below are presented as PDF files. If you need a reader for these files, you should download the free Adobe Reader.

NOT FOR NAVIGATION. Please procure official charts for flight.
FAA instrument procedures published for use between 7 December 2017 at 0901Z and 4 January 2018 at 0900Z.

 
STARs - Standard Terminal Arrivals
CHARDON THREE   download (261KB)
FAILS TWO   2 pages: [1] [2] (240KB)
KEATN SIX   download (175KB)
ZABER SIX   2 pages: [1] [2] (416KB)
 
IAPs - Instrument Approach Procedures
RNAV (GPS) RWY 11 **CHANGED**   download (185KB)
RNAV (GPS) RWY 29 **CHANGED**   download (185KB)
VOR-A **CHANGED**   download (150KB)
 
Departure Procedures
ALPHE FOUR (RNAV)   download (163KB)
AMRST FIVE   download (216KB)
OBRLN FIVE   2 pages: [1] [2] (424KB)
NOTE: Special Take-Off Minimums/Departure Procedures apply   download (164KB)

Other nearby airports with instrument procedures:

2G1 - Concord Airpark (14 nm NW)
KPOV - Portage County Airport (17 nm SW)
KCGF - Cuyahoga County Airport (20 nm W)
KLNN - Willoughby Lost Nation Municipal Airport (20 nm NW)
KYNG - Youngstown-Warren Regional Airport (21 nm SE)
 
Loc | Ops | Rwys | IFR | FBO | Links
Com | Nav | Svcs | Stats | Notes


 
Area around 7G8 (Geauga County Airport)
 
Road maps at: MapQuest Bing Google
 
Aerial photo
WARNING: Photo may not be current or correct
Aerial photo of 7G8 (Geauga County Airport)
Do you have a better or more recent aerial photo of Geauga County Airport that you would like to share? If so, please send us your photo.

 
Sectional chart

 
Airport distance calculator
Flying to Geauga County Airport? Find the distance to fly.

From to 7G8

Sunrise and sunset
Times for 18-Dec-2017
 Local
(UTC-5)
 Zulu
(UTC)
Morning civil twilight07:1512:15
Sunrise07:4612:46
Sunset16:5521:55
Evening civil twilight17:2722:27

Current date and time
Zulu (UTC)  18-Dec-2017 16:11:51
Local (UTC-5)  18-Dec-2017 11:11:51
 
METAR
KPOV 
17nm SW 
181555Z AUTO 19004KT 3SM BR OVC005 03/02 A3000 RMK AO2 T00250019
KLNN 
19nm NW 
181555Z AUTO 21006KT 7SM SCT041 OVC049 04/02 A2998 RMK AO1 T00350018
KCGF 
19nm W 
181545Z 20010KT 6SM HZ BKN012 OVC030 05/00 A2999
KYNG 
21nm SE 
181551Z 20009KT 3SM -DZ BR OVC005 03/02 A3001 RMK AO2 DZB40 SLP172 P0000 T00280017
KHZY 
26nm NE 
181553Z AUTO 20009KT 7SM BKN012 OVC041 03/01 A3000 RMK AO2 SLP165 T00280011
KBKL 
28nm W 
181553Z 20011KT 8SM BKN013 OVC070 05/02 A2998 RMK AO2 RAB09E18 SLP157 P0000 T00500022
KAKR 
31nm SW 
181554Z AUTO 20008KT 2SM BR OVC003 03/02 A3000 RMK AO2 SLP165 T00330022
TAF
KYNG 
21nm SE 
181424Z 1814/1912 21007KT P6SM VCSH OVC007 TEMPO 1815/1818 5SM -DZ BR OVC005 FM190000 22008KT P6SM OVC012
NOTAMs
Click for the latest NOTAMs
NOTAMs are issued by the DoD/FAA and will open in a separate window not controlled by AirNav.

 

 
 

FBO, Fuel Providers, and Aircraft Ground Support

  
 Business Name 
 
 Contact 
 
 Services / Description 
 
Fuel Prices
 
Comments
  
Geauga County Airport Authority 440-632-1884
no information available

If you are affiliated with Geauga County Airport Authority and would like to show here your services, contact info, web link, logo, and more, click here
100LL Mogas
AS $5.03 $4.29 
 Updated 15-Dec-2017
 
   write
AS=Assisted/Self Service
Update Fuel Prices
 

Would you like to see your business listed on this page?

 If your business provides an interesting product or service to pilots, flight crews, aircraft, or users of the Geauga County Airport, you should consider listing it here.  To start the listing process, click on the button below
 
Add a business
 

Other Pages about Geauga County Airport

www.co.geauga.oh.us/...
 
Update a link
 
Copyright © AirNav, LLC. All rights reserved. Privacy Policy  Contact